Time;durP1;ratioP1;P1;durP2;ratioP2;P2;SDS_P1;SDS_P2;PMS_P1;PMS_P2;Temp;Humidity;BMP_temperature;BMP_pressure;BME280_temperature;BME280_humidity;BME280_pressure;Samples;Min_cycle;Max_cycle;Signal;HPM_P1;HPM_P2
2022/07/19 00:01:55;;;;;;;17.37;9.10;;;;;;;-145.18;100.00;46496.31;5072603;28;20424;-70
2022/07/19 00:04:21;;;;;;;12.80;9.07;;;;;;;-145.18;100.00;46496.31;5072108;28;20045;-70
2022/07/19 00:06:46;;;;;;;11.60;9.13;;;;;;;-145.18;100.00;46488.50;5072531;28;20115;-70
2022/07/19 00:09:11;;;;;;;15.30;8.10;;;;;;;-145.18;100.00;46498.28;5054490;28;20070;-70
2022/07/19 00:11:37;;;;;;;14.07;7.63;;;;;;;-145.18;100.00;46496.31;5034454;28;20017;-69
2022/07/19 00:14:02;;;;;;;14.13;8.10;;;;;;;-145.18;100.00;46502.19;5064122;28;20093;-70
2022/07/19 00:16:27;;;;;;;13.87;8.80;;;;;;;-145.18;100.00;46521.72;5072037;28;20036;-70
2022/07/19 00:18:53;;;;;;;12.50;9.17;;;;;;;-145.18;100.00;46545.16;5072643;28;20031;-69
2022/07/19 00:21:18;;;;;;;14.27;10.07;;;;;;;-145.18;100.00;46652.59;5071836;28;20032;-70
2022/07/19 00:23:44;;;;;;;17.33;8.70;;;;;;;-145.18;100.00;46658.44;5072165;28;20398;-70
2022/07/19 00:26:09;;;;;;;12.67;8.07;;;;;;;-145.18;100.00;46660.41;5071694;28;20390;-69
2022/07/19 00:28:34;;;;;;;15.60;9.10;;;;;;;-145.18;100.00;46644.78;5072077;28;20037;-69
2022/07/19 00:31:00;;;;;;;16.83;11.43;;;;;;;-145.18;100.00;46676.03;5072369;28;20546;-69
2022/07/19 00:33:25;;;;;;;21.93;8.97;;;;;;;-145.18;100.00;46640.88;5071560;28;20039;-70
2022/07/19 00:35:51;;;;;;;22.30;8.60;;;;;;;-145.18;100.00;46644.78;5071583;28;20029;-70
2022/07/19 00:38:16;;;;;;;20.73;9.10;;;;;;;-145.18;100.00;46640.88;5071380;28;20044;-69
2022/07/19 00:40:42;;;;;;;15.93;8.27;;;;;;;-145.18;100.00;46644.78;5071835;28;20033;-69
2022/07/19 00:43:09;;;;;;;14.33;9.13;;;;;;;-145.18;100.00;46677.97;5071464;28;20035;-70
2022/07/19 00:45:35;;;;;;;15.17;9.77;;;;;;;-145.18;100.00;46660.41;5071767;28;20047;-70
2022/07/19 00:48:00;;;;;;;20.13;10.83;;;;;;;-145.18;100.00;46635.00;5071854;28;20496;-69
2022/07/19 00:50:26;;;;;;;12.33;9.63;;;;;;;-145.18;100.00;46541.25;5071363;28;20072;-70
2022/07/19 00:52:55;;;;;;;14.70;10.43;;;;;;;-145.18;100.00;46545.16;5071506;28;20028;-70
2022/07/19 00:55:22;;;;;;;16.80;10.83;;;;;;;-145.18;100.00;46568.59;5071644;28;20035;-69
2022/07/19 00:57:48;;;;;;;19.17;9.93;;;;;;;-145.18;100.00;46556.88;5071279;28;20056;-69
2022/07/19 01:00:15;;;;;;;16.00;10.10;;;;;;;-145.18;100.00;46554.91;5071248;28;20524;-70
2022/07/19 01:02:41;;;;;;;17.00;9.40;;;;;;;-145.18;100.00;46554.91;5052908;28;20068;-69
2022/07/19 01:05:08;;;;;;;16.20;9.20;;;;;;;-145.18;100.00;46558.81;5071423;28;20127;-72
2022/07/19 01:07:37;;;;;;;14.27;9.17;;;;;;;-145.18;100.00;46623.28;5071266;28;20029;-69
2022/07/19 01:10:07;;;;;;;14.30;10.77;;;;;;;-145.18;100.00;46543.19;5071638;28;20123;-71
2022/07/19 01:12:34;;;;;;;17.57;11.83;;;;;;;-145.18;100.00;46552.97;5070662;28;20062;-72
2022/07/19 01:15:00;;;;;;;15.87;10.90;;;;;;;-145.18;100.00;46549.06;5071186;28;20029;-70
2022/07/19 01:17:26;;;;;;;16.80;10.00;;;;;;;-145.18;100.00;46566.63;5082588;28;20038;-72
2022/07/19 01:19:52;;;;;;;17.23;10.37;;;;;;;-145.18;100.00;46652.59;5073508;28;20107;-70
2022/07/19 01:22:18;;;;;;;16.73;9.90;;;;;;;-145.18;100.00;46652.59;5070529;28;20108;-70
2022/07/19 01:24:43;;;;;;;17.77;10.07;;;;;;;-145.18;100.00;46652.59;5071157;28;20593;-70
2022/07/19 01:27:09;;;;;;;21.60;10.43;;;;;;;-145.18;100.00;46656.50;5070449;28;20103;-70
2022/07/19 01:29:37;;;;;;;16.97;10.20;;;;;;;-145.18;100.00;46660.41;5070919;28;20023;-72
2022/07/19 01:32:06;;;;;;;17.27;9.80;;;;;;;-145.18;100.00;46640.88;5070562;28;20098;-70
2022/07/19 01:34:31;;;;;;;15.53;9.90;;;;;;;-145.18;100.00;46640.88;5070738;28;20020;-71
2022/07/19 01:36:56;;;;;;;17.10;9.23;;;;;;;-145.18;100.00;46642.81;5070469;28;20041;-70
2022/07/19 01:39:22;;;;;;;9.77;8.47;;;;;;;-145.18;100.00;46660.41;5070541;28;20111;-72
2022/07/19 01:41:47;;;;;;;12.50;8.50;;;;;;;-145.18;100.00;46646.72;5070084;28;20040;-72
2022/07/19 01:44:13;;;;;;;12.17;8.50;;;;;;;-145.18;100.00;46642.81;5070632;28;20031;-72
2022/07/19 01:46:38;;;;;;;11.80;8.87;;;;;;;-145.18;100.00;46642.81;5070297;28;20489;-71
2022/07/19 01:49:03;;;;;;;20.50;9.63;;;;;;;-145.18;100.00;46644.78;5070191;28;20581;-71
2022/07/19 01:51:29;;;;;;;16.57;9.87;;;;;;;-145.18;100.00;46660.41;5069754;28;20031;-69
2022/07/19 01:53:54;;;;;;;15.87;11.33;;;;;;;-145.18;100.00;46660.41;5070381;28;20566;-71
2022/07/19 01:56:20;;;;;;;17.30;11.07;;;;;;;-145.18;100.00;46648.69;5069991;28;20074;-72
2022/07/19 01:58:45;;;;;;;22.73;11.50;;;;;;;-145.18;100.00;46652.59;5070620;28;20054;-72
2022/07/19 02:03:46;;;;;;;14.20;11.20;;;;;;;-145.18;100.00;46652.59;5250299;22;20064;-70
2022/07/19 02:06:11;;;;;;;19.77;9.57;;;;;;;-145.18;100.00;46652.59;5055180;28;20088;-70
2022/07/19 02:08:37;;;;;;;16.20;10.10;;;;;;;-145.18;100.00;46652.59;5064472;28;20067;-70
2022/07/19 02:11:34;;;;;;;13.07;10.30;;;;;;;-145.18;100.00;46650.63;5070026;28;20032;-70
2022/07/19 02:13:48;;;;;;;16.30;11.18;;;;;;;-145.18;100.00;46648.69;5069372;28;20070;-70
2022/07/19 02:16:14;;;;;;;17.20;10.93;;;;;;;-145.18;100.00;46646.72;5070360;28;20111;-70
2022/07/19 02:18:39;;;;;;;23.40;13.20;;;;;;;-145.18;100.00;46646.72;5069440;28;20067;-70
2022/07/19 02:21:05;;;;;;;14.87;12.07;;;;;;;-145.18;100.00;46642.81;5070162;28;20033;-70
2022/07/19 02:23:30;;;;;;;14.37;10.77;;;;;;;-145.18;100.00;46646.72;5069420;28;20039;-70
2022/07/19 02:25:55;;;;;;;17.33;10.70;;;;;;;-145.18;100.00;46642.81;5069654;28;20472;-70
2022/07/19 02:28:21;;;;;;;20.57;13.30;;;;;;;-145.18;100.00;46646.72;5069830;28;20452;-70
2022/07/19 02:30:46;;;;;;;21.40;13.57;;;;;;;-145.18;100.00;46644.78;5070007;28;20028;-69
2022/07/19 02:33:11;;;;;;;18.80;14.70;;;;;;;-145.18;100.00;46642.81;5052072;28;20036;-70
2022/07/19 02:35:37;;;;;;;20.40;13.87;;;;;;;-145.18;100.00;46646.72;5069496;28;20024;-70
2022/07/19 02:38:02;;;;;;;19.03;13.50;;;;;;;-145.18;100.00;46644.78;5069664;28;20487;-70
2022/07/19 02:40:28;;;;;;;17.57;13.60;;;;;;;-145.18;100.00;46642.81;5069866;28;20047;-70
2022/07/19 02:42:53;;;;;;;17.67;13.73;;;;;;;-145.18;100.00;46660.41;5069891;28;20060;-70
2022/07/19 02:45:18;;;;;;;19.90;12.90;;;;;;;-145.18;100.00;46660.41;5068686;28;20404;-69
2022/07/19 02:47:44;;;;;;;19.50;12.53;;;;;;;-145.18;100.00;46681.88;5068700;28;20377;-70
2022/07/19 02:50:09;;;;;;;19.43;12.93;;;;;;;-145.18;100.00;46644.78;5069845;28;20033;-70
2022/07/19 02:52:35;;;;;;;17.53;12.90;;;;;;;-145.18;100.00;46652.59;5067871;28;20024;-70
2022/07/19 02:55:00;;;;;;;25.50;12.40;;;;;;;-145.18;100.00;46648.69;5069132;28;20029;-70
2022/07/19 02:57:25;;;;;;;20.20;13.50;;;;;;;-145.18;100.00;46646.72;5068631;28;20097;-70
2022/07/19 02:59:51;;;;;;;20.20;13.03;;;;;;;-145.18;100.00;46648.69;5072149;28;20024;-70
2022/07/19 03:02:16;;;;;;;16.40;12.30;;;;;;;-145.18;100.00;46652.59;5073641;28;20125;-70
2022/07/19 03:04:42;;;;;;;18.13;13.20;;;;;;;-145.18;100.00;46650.63;5073193;28;20455;-70
2022/07/19 03:07:07;;;;;;;18.03;12.33;;;;;;;-145.18;100.00;46646.72;5073877;28;20036;-70
2022/07/19 03:09:32;;;;;;;14.83;11.30;;;;;;;-145.18;100.00;46646.72;5073248;28;20536;-70
2022/07/19 03:11:58;;;;;;;15.37;13.13;;;;;;;-145.18;100.00;46646.72;5072995;28;20036;-70
2022/07/19 03:14:24;;;;;;;18.37;14.10;;;;;;;-145.18;100.00;46648.69;5073007;28;20044;-70
2022/07/19 03:16:49;;;;;;;23.97;15.00;;;;;;;-145.18;100.00;46648.69;5073158;28;20036;-70
2022/07/19 03:19:14;;;;;;;21.83;15.00;;;;;;;-145.18;100.00;46644.78;5073386;28;20389;-71
2022/07/19 03:21:40;;;;;;;16.83;13.13;;;;;;;-145.18;100.00;46646.72;5073324;28;20415;-70
2022/07/19 03:24:05;;;;;;;16.37;12.63;;;;;;;-145.18;100.00;46644.78;5072989;28;20035;-70
2022/07/19 03:26:31;;;;;;;17.50;14.07;;;;;;;-145.18;100.00;46642.81;5072851;28;20561;-70
2022/07/19 03:28:56;;;;;;;17.20;13.53;;;;;;;-145.18;100.00;46646.72;5073177;28;20035;-70
2022/07/19 03:31:22;;;;;;;19.37;13.93;;;;;;;-145.18;100.00;46646.72;5073269;28;20039;-71
2022/07/19 03:33:47;;;;;;;16.90;14.07;;;;;;;-145.18;100.00;46644.78;5072717;28;20032;-71
2022/07/19 03:36:12;;;;;;;17.77;12.67;;;;;;;-145.18;100.00;46646.72;5073031;28;20040;-70
2022/07/19 03:38:38;;;;;;;21.47;13.07;;;;;;;-145.18;100.00;46650.63;5071669;28;20079;-69
2022/07/19 03:41:03;;;;;;;26.30;12.93;;;;;;;-145.18;100.00;46648.69;5072271;28;20477;-70
2022/07/19 03:43:29;;;;;;;21.20;14.00;;;;;;;-145.18;100.00;46654.53;5071951;28;20037;-70
2022/07/19 03:45:54;;;;;;;19.80;12.70;;;;;;;-145.18;100.00;46650.63;5069205;28;20087;-70
2022/07/19 03:48:21;;;;;;;21.10;13.73;;;;;;;-145.18;100.00;46650.63;5069982;28;20037;-70
2022/07/19 03:50:46;;;;;;;18.97;12.57;;;;;;;-145.18;100.00;46648.69;5070329;28;20131;-70
2022/07/19 03:53:12;;;;;;;19.87;13.67;;;;;;;-145.18;100.00;46652.59;5061910;28;20036;-70
2022/07/19 03:55:38;;;;;;;16.00;12.43;;;;;;;-145.18;100.00;46652.59;5054276;28;20113;-70
2022/07/19 03:58:03;;;;;;;19.63;13.00;;;;;;;-145.18;100.00;46654.53;5057309;28;20119;-71
2022/07/19 04:00:29;;;;;;;17.20;13.73;;;;;;;-145.18;100.00;46650.63;5056023;28;20385;-72
2022/07/19 04:02:54;;;;;;;15.30;12.63;;;;;;;-145.18;100.00;46654.53;5060179;28;20047;-69
2022/07/19 04:05:20;;;;;;;20.37;12.97;;;;;;;-145.18;100.00;46658.44;5060788;28;20032;-70
2022/07/19 04:07:45;;;;;;;24.53;13.83;;;;;;;-145.18;100.00;46652.59;5071611;28;20127;-72
2022/07/19 04:10:10;;;;;;;15.40;12.43;;;;;;;-145.18;100.00;46648.69;5060056;28;20119;-70
2022/07/19 04:12:36;;;;;;;20.40;14.57;;;;;;;-145.18;100.00;46650.63;5067691;28;20032;-70
2022/07/19 04:15:01;;;;;;;16.43;13.17;;;;;;;-145.18;100.00;46652.59;5071565;28;20036;-70
2022/07/19 04:17:27;;;;;;;20.90;13.27;;;;;;;-145.18;100.00;46650.63;5071465;28;20024;-70
2022/07/19 04:19:52;;;;;;;21.63;12.53;;;;;;;-145.18;100.00;46652.59;5071311;28;20051;-70
2022/07/19 04:22:18;;;;;;;20.63;13.93;;;;;;;-145.18;100.00;46654.53;5072066;28;20021;-70
2022/07/19 04:24:44;;;;;;;21.17;14.23;;;;;;;-145.18;100.00;46652.59;5064849;28;20392;-69
2022/07/19 04:27:09;;;;;;;21.23;13.70;;;;;;;-145.18;100.00;46656.50;5071354;28;20033;-70
2022/07/19 04:29:35;;;;;;;21.20;13.67;;;;;;;-145.18;100.00;46650.63;5070883;28;20429;-70
2022/07/19 04:32:00;;;;;;;21.97;14.73;;;;;;;-145.18;100.00;46654.53;5064820;28;20596;-70
2022/07/19 04:34:25;;;;;;;18.97;13.93;;;;;;;-145.18;100.00;46654.53;5066196;28;20036;-70
2022/07/19 04:36:51;;;;;;;25.70;14.80;;;;;;;-145.18;100.00;46650.63;5071455;28;20087;-70
2022/07/19 04:39:16;;;;;;;21.20;14.00;;;;;;;-145.18;100.00;46652.59;5071592;28;20017;-69
2022/07/19 04:41:41;;;;;;;28.47;15.00;;;;;;;-145.18;100.00;46646.72;5071040;28;20393;-70
2022/07/19 04:44:07;;;;;;;22.00;14.50;;;;;;;-145.18;100.00;46646.72;5077597;28;20035;-70
2022/07/19 04:46:32;;;;;;;24.50;14.63;;;;;;;-145.18;100.00;46652.59;5056927;28;20044;-70
2022/07/19 04:48:58;;;;;;;19.70;15.50;;;;;;;-145.18;100.00;46652.59;5062626;28;20173;-70
2022/07/19 04:51:24;;;;;;;21.20;15.17;;;;;;;-145.18;100.00;46652.59;5049326;28;20112;-70
2022/07/19 04:53:49;;;;;;;23.47;15.20;;;;;;;-145.18;100.00;46652.59;5066867;28;20051;-70
2022/07/19 04:56:14;;;;;;;20.23;15.27;;;;;;;-145.18;100.00;46650.63;5070458;28;20029;-69
2022/07/19 04:58:40;;;;;;;19.87;15.73;;;;;;;-145.18;100.00;46646.72;5070963;28;20036;-70
2022/07/19 05:01:05;;;;;;;24.67;15.40;;;;;;;-145.18;100.00;46652.59;5070828;28;20601;-70
2022/07/19 05:03:31;;;;;;;22.20;15.23;;;;;;;-145.18;100.00;46648.69;5070397;28;20127;-71
2022/07/19 05:05:56;;;;;;;22.67;15.10;;;;;;;-145.18;100.00;46648.69;5068145;28;20040;-70
2022/07/19 05:08:22;;;;;;;25.57;15.20;;;;;;;-145.18;100.00;46652.59;5070911;28;20032;-71
2022/07/19 05:10:47;;;;;;;20.93;15.73;;;;;;;-145.18;100.00;46650.63;5070847;28;20082;-70
2022/07/19 05:13:12;;;;;;;21.90;15.87;;;;;;;-145.18;100.00;46656.50;5070307;28;20036;-70
2022/07/19 05:15:38;;;;;;;25.17;14.90;;;;;;;-145.18;100.00;46654.53;5070558;28;20125;-70
2022/07/19 05:18:03;;;;;;;25.37;15.03;;;;;;;-145.18;100.00;46648.69;5070287;28;20036;-70
2022/07/19 05:20:29;;;;;;;26.70;16.10;;;;;;;-145.18;100.00;46656.50;5070945;28;20638;-70
2022/07/19 05:22:54;;;;;;;25.87;15.43;;;;;;;-145.18;100.00;46650.63;5068918;28;20037;-70
2022/07/19 05:25:19;;;;;;;22.47;15.30;;;;;;;-145.18;100.00;46656.50;5070700;28;20094;-71
2022/07/19 05:27:45;;;;;;;22.13;14.90;;;;;;;-145.18;100.00;46654.53;5070981;28;20068;-70
2022/07/19 05:30:11;;;;;;;19.67;14.77;;;;;;;-145.18;100.00;46650.63;5070732;28;20659;-70
2022/07/19 05:32:37;;;;;;;21.23;15.23;;;;;;;-145.18;100.00;46652.59;5070215;28;20028;-70
2022/07/19 05:35:03;;;;;;;25.90;15.70;;;;;;;-145.18;100.00;46648.69;5070542;28;20402;-70
2022/07/19 05:37:28;;;;;;;24.60;15.77;;;;;;;-145.18;100.00;46646.72;5070623;28;20025;-70
2022/07/19 05:39:53;;;;;;;21.37;14.43;;;;;;;-145.18;100.00;46660.41;5070098;28;20103;-70
2022/07/19 05:42:19;;;;;;;22.20;16.10;;;;;;;-145.18;100.00;46660.41;5070493;28;20082;-70
2022/07/19 05:44:44;;;;;;;21.60;14.80;;;;;;;-145.18;100.00;46631.09;5067771;28;20024;-70
2022/07/19 05:47:10;;;;;;;22.23;15.07;;;;;;;-145.18;100.00;46552.97;5069596;28;20373;-71
2022/07/19 05:49:35;;;;;;;23.00;15.70;;;;;;;-145.18;100.00;46547.09;5069459;28;20036;-70
2022/07/19 05:52:01;;;;;;;22.57;16.70;;;;;;;-145.18;100.00;46621.31;5069368;28;20408;-70
2022/07/19 05:54:26;;;;;;;24.13;16.80;;;;;;;-145.18;100.00;46558.81;5070025;28;20132;-70
2022/07/19 05:56:52;;;;;;;23.80;17.43;;;;;;;-145.18;100.00;46564.69;5069166;28;20044;-71
2022/07/19 05:59:20;;;;;;;20.10;16.90;;;;;;;-145.18;100.00;46568.59;5069442;28;20499;-71
2022/07/19 06:01:46;;;;;;;23.90;16.70;;;;;;;-145.18;100.00;46527.56;5069288;28;20028;-70
2022/07/19 06:04:12;;;;;;;22.70;16.33;;;;;;;-145.18;100.00;46515.84;5070046;28;20044;-71
2022/07/19 06:06:37;;;;;;;24.77;17.67;;;;;;;-145.18;100.00;46513.91;5070032;28;20046;-71
2022/07/19 06:09:04;;;;;;;18.80;16.83;;;;;;;-145.18;100.00;46504.13;5070062;28;20025;-70
2022/07/19 06:11:30;;;;;;;22.40;16.47;;;;;;;-145.18;100.00;46508.03;5070618;28;20029;-70
2022/07/19 06:13:56;;;;;;;27.70;17.37;;;;;;;-145.18;100.00;46511.94;5069714;28;20025;-71
2022/07/19 06:16:23;;;;;;;22.40;16.57;;;;;;;-145.18;100.00;46496.31;5070295;28;20095;-71
2022/07/19 06:18:48;;;;;;;21.33;17.10;;;;;;;-145.18;100.00;46502.19;5069185;28;20029;-70
2022/07/19 06:21:17;;;;;;;24.23;16.97;;;;;;;-145.18;100.00;46504.13;5070258;28;20032;-71
2022/07/19 06:23:43;;;;;;;28.77;18.43;;;;;;;-145.18;100.00;46504.13;5069447;28;20258;-70
2022/07/19 06:26:09;;;;;;;24.30;18.83;;;;;;;-145.18;100.00;46500.22;5069634;28;20127;-71
2022/07/19 06:28:35;;;;;;;23.40;16.57;;;;;;;-145.18;100.00;46506.09;5069191;28;20077;-70
2022/07/19 06:31:01;;;;;;;22.33;17.40;;;;;;;-145.18;100.00;46500.22;5069923;28;20036;-71
2022/07/19 06:33:26;;;;;;;25.57;17.00;;;;;;;-145.18;100.00;46500.22;5069402;28;20183;-71
2022/07/19 06:35:52;;;;;;;27.37;17.53;;;;;;;-145.18;100.00;46500.22;5069914;28;20043;-70
2022/07/19 06:38:17;;;;;;;23.20;17.17;;;;;;;-145.18;100.00;46504.13;5069886;28;20044;-71
2022/07/19 06:40:43;;;;;;;26.27;18.23;;;;;;;-145.18;100.00;46508.03;5069363;28;20102;-71
2022/07/19 06:43:09;;;;;;;26.17;17.53;;;;;;;-145.18;100.00;46500.22;5069994;28;20036;-71
2022/07/19 06:45:34;;;;;;;28.13;17.13;;;;;;;-145.18;100.00;46500.22;5068501;28;20041;-71
2022/07/19 06:48:00;;;;;;;26.17;17.80;;;;;;;-145.18;100.00;46504.13;5069742;28;20112;-71
2022/07/19 06:50:25;;;;;;;26.67;18.13;;;;;;;-145.18;100.00;46506.09;5068585;28;20115;-71
2022/07/19 06:52:51;;;;;;;25.60;16.90;;;;;;;-145.18;100.00;46498.28;5068747;28;20044;-71
2022/07/19 06:55:16;;;;;;;25.33;18.17;;;;;;;-145.18;100.00;46502.19;5068858;28;20131;-70
2022/07/19 06:57:42;;;;;;;23.50;19.03;;;;;;;-145.18;100.00;46492.41;5069503;28;20055;-71
2022/07/19 07:00:09;;;;;;;26.53;20.20;;;;;;;-145.18;100.00;46492.41;5069379;28;20041;-71
2022/07/19 07:02:38;;;;;;;36.70;20.27;;;;;;;-145.18;100.00;46488.50;5068177;28;20032;-70
2022/07/19 07:05:05;;;;;;;32.83;20.03;;;;;;;-145.18;100.00;46500.22;5048369;28;20515;-71
2022/07/19 07:07:31;;;;;;;24.93;20.33;;;;;;;-145.18;100.00;46486.56;5047834;28;20115;-71
2022/07/19 07:09:56;;;;;;;31.17;19.60;;;;;;;-145.18;100.00;46496.31;5049354;28;20128;-71
2022/07/19 07:12:22;;;;;;;25.73;19.60;;;;;;;-145.18;100.00;46482.66;5049119;28;20134;-73
2022/07/19 07:14:47;;;;;;;29.37;19.37;;;;;;;-145.18;100.00;46490.47;5048002;28;20167;-71
2022/07/19 07:17:13;;;;;;;39.90;20.10;;;;;;;-145.18;100.00;46498.28;5031030;28;20505;-71
2022/07/19 07:19:38;;;;;;;37.27;18.93;;;;;;;-145.18;100.00;46490.47;5048952;28;20033;-71
2022/07/19 07:22:03;;;;;;;23.27;18.03;;;;;;;-145.18;100.00;46486.56;5031516;28;20033;-71
2022/07/19 07:24:29;;;;;;;24.60;17.13;;;;;;;-145.18;100.00;46494.38;5049381;28;20381;-73
2022/07/19 07:26:54;;;;;;;24.87;16.63;;;;;;;-145.18;100.00;46484.59;5049147;28;20033;-72
2022/07/19 07:29:20;;;;;;;22.38;16.63;;;;;;;-145.18;100.00;46498.28;5031278;28;20493;-73
2022/07/19 07:31:46;;;;;;;28.20;16.87;;;;;;;-145.18;100.00;46500.22;5048990;28;20032;-73
2022/07/19 07:34:12;;;;;;;24.63;16.15;;;;;;;-145.18;100.00;46480.69;5048766;28;20033;-73
2022/07/19 07:36:37;;;;;;;25.92;16.13;;;;;;;-145.18;100.00;46488.50;5049017;28;20036;-73
2022/07/19 07:39:03;;;;;;;26.27;16.25;;;;;;;-145.18;100.00;46492.41;5048632;28;20053;-73
2022/07/19 07:41:28;;;;;;;30.88;15.70;;;;;;;-145.18;100.00;46472.88;5049099;28;20036;-72
2022/07/19 07:43:53;;;;;;;25.40;14.05;;;;;;;-145.18;100.00;46480.69;5048422;28;20108;-73
2022/07/19 07:46:19;;;;;;;21.88;13.55;;;;;;;-145.18;100.00;46486.56;5050717;28;20029;-73
2022/07/19 07:48:44;;;;;;;22.50;12.75;;;;;;;-145.18;100.00;46461.16;5051324;28;20037;-73
2022/07/19 07:51:10;;;;;;;21.77;12.93;;;;;;;-145.18;100.00;46482.66;5051964;28;20060;-73
2022/07/19 07:53:35;;;;;;;27.63;12.13;;;;;;;-145.18;100.00;46539.28;5051886;28;20037;-72
2022/07/19 07:56:00;;;;;;;21.52;10.85;;;;;;;-145.18;100.00;46615.47;5052143;28;20033;-72
2022/07/19 07:58:26;;;;;;;22.70;9.98;;;;;;;-145.18;100.00;47053.03;5051995;28;20036;-72
2022/07/19 08:00:51;;;;;;;21.65;10.38;;;;;;;-145.18;100.00;46988.56;5051572;28;20152;-73
2022/07/19 08:03:17;;;;;;;16.00;9.68;;;;;;;-145.18;100.00;47047.19;5057778;28;20048;-72
2022/07/19 08:05:47;;;;;;;27.00;10.10;;;;;;;-145.18;100.00;46994.44;5052133;28;20044;-72
2022/07/19 08:08:15;;;;;;;16.90;7.72;;;;;;;-145.18;100.00;46986.63;5052251;28;20041;-72
2022/07/19 08:10:41;;;;;;;22.23;9.15;;;;;;;-145.18;100.00;46998.34;5033724;28;20078;-73
2022/07/19 08:13:07;;;;;;;19.58;7.38;;;;;;;-145.18;100.00;46965.13;5052227;28;20116;-72
2022/07/19 08:15:33;;;;;;;20.63;7.15;;;;;;;-145.18;100.00;46992.47;5051718;28;20032;-73
2022/07/19 08:17:59;;;;;;;18.42;6.88;;;;;;;-145.18;100.00;47027.63;5052271;28;20029;-73
2022/07/19 08:20:24;;;;;;;17.42;6.53;;;;;;;-145.18;100.00;46994.44;5051421;28;20043;-72
2022/07/19 08:22:50;;;;;;;15.10;5.95;;;;;;;-145.18;100.00;46965.13;5051877;28;20374;-73
2022/07/19 08:25:16;;;;;;;10.93;4.57;;;;;;;-145.18;100.00;46945.59;5051808;28;20055;-73
2022/07/19 08:27:43;;;;;;;9.27;4.57;;;;;;;-145.18;100.00;46943.63;5051520;28;20087;-73
2022/07/19 08:30:09;;;;;;;11.60;4.60;;;;;;;-145.18;100.00;46943.63;5050911;28;20528;-71
2022/07/19 08:32:34;;;;;;;11.38;4.05;;;;;;;-145.18;100.00;46922.16;5033592;28;20037;-73
2022/07/19 08:34:59;;;;;;;11.73;4.30;;;;;;;-145.18;100.00;46939.72;5051079;28;20466;-71
2022/07/19 08:37:25;;;;;;;10.02;4.57;;;;;;;-145.18;100.00;46920.19;5050858;28;20036;-71
2022/07/19 08:39:50;;;;;;;16.95;4.85;;;;;;;-145.18;100.00;46910.44;5051362;28;20080;-71
2022/07/19 08:42:20;;;;;;;8.98;4.68;;;;;;;-145.18;100.00;46916.28;5024050;28;20097;-71
2022/07/19 08:44:50;;;;;;;15.95;4.50;;;;;;;-145.18;100.00;46906.53;5050794;28;20060;-71
2022/07/19 08:47:16;;;;;;;11.85;4.72;;;;;;;-145.18;100.00;46900.66;5050415;28;20147;-71
2022/07/19 08:49:43;;;;;;;9.60;4.25;;;;;;;-145.18;100.00;46898.72;5051859;28;20529;-71
2022/07/19 08:52:09;;;;;;;10.95;3.83;;;;;;;-145.18;100.00;46902.63;5051225;28;20116;-71
2022/07/19 08:54:34;;;;;;;10.57;3.78;;;;;;;-145.18;100.00;46894.81;5051413;28;20024;-72
2022/07/19 08:59:43;;;;;;;10.15;3.40;;;;;;;-145.18;100.00;46883.09;5051502;28;20035;-74
2022/07/19 09:02:09;;;;;;;7.95;3.58;;;;;;;-145.18;100.00;46888.94;5065040;28;20390;-71
2022/07/19 09:04:34;;;;;;;13.23;3.78;;;;;;;-145.18;100.00;46888.94;5067680;28;20053;-73
2022/07/19 09:06:59;;;;;;;11.27;3.72;;;;;;;-145.18;100.00;46881.13;5071332;28;20037;-73
2022/07/19 09:09:31;;;;;;;9.80;4.13;;;;;;;-145.18;100.00;46877.22;5070776;28;20440;-71
2022/07/19 09:11:59;;;;;;;9.98;2.92;;;;;;;-145.18;100.00;46879.19;5070722;28;20040;-71
2022/07/19 09:14:32;;;;;;;13.05;4.13;;;;;;;-145.18;100.00;46877.22;5070928;28;20024;-72
2022/07/19 09:17:02;;;;;;;7.78;3.00;;;;;;;-145.18;100.00;46875.28;5070906;28;20473;-71
2022/07/19 09:19:33;;;;;;;13.10;3.25;;;;;;;-145.18;100.00;46863.53;5070587;28;20078;-72
2022/07/19 09:22:01;;;;;;;10.32;3.63;;;;;;;-145.18;100.00;46863.53;5070795;28;20021;-71
2022/07/19 09:24:30;;;;;;;8.63;3.58;;;;;;;-145.18;100.00;46861.59;5070295;28;20035;-71
2022/07/19 09:27:09;;;;;;;31.60;6.25;;;;;;;-145.18;100.00;46861.59;5070767;28;20029;-72
2022/07/19 09:29:46;;;;;;;24.27;5.20;;;;;;;-145.18;100.00;46861.59;5057541;28;20024;-72
2022/07/19 09:32:18;;;;;;;23.75;4.80;;;;;;;-145.18;100.00;46855.72;5070508;28;20025;-72
2022/07/19 09:34:53;;;;;;;51.28;7.18;;;;;;;-145.18;100.00;46847.91;5070001;28;20058;-72
2022/07/19 09:37:18;;;;;;;;;;;;;;;-145.18;100.00;46834.25;5070492;28;20575;-72
2022/07/19 09:39:46;;;;;;;210.50;20.98;;;;;;;-145.18;100.00;46836.19;5070172;28;19999;-72
2022/07/19 09:42:23;;;;;;;14.98;4.10;;;;;;;-145.18;100.00;46844.00;5055274;28;20135;-71
2022/07/19 09:45:00;;;;;;;9.38;3.58;;;;;;;-145.18;100.00;46842.06;5082083;28;20132;-72
2022/07/19 09:47:40;;;;;;;8.80;3.45;;;;;;;-145.18;100.00;46840.09;5083043;28;20029;-72
2022/07/19 09:50:09;;;;;;;8.73;2.85;;;;;;;-145.18;100.00;46826.44;5086345;28;20051;-71
2022/07/19 09:52:35;;;;;;;11.23;3.60;;;;;;;-145.18;100.00;46832.28;5086539;28;20111;-72
2022/07/19 09:55:04;;;;;;;9.00;2.72;;;;;;;-145.18;95.95;46828.38;5090114;28;20162;-71
2022/07/19 09:57:35;;;;;;;9.00;2.90;;;;;;;-145.18;100.00;46828.38;5090140;28;20120;-72
2022/07/19 10:00:04;;;;;;;9.63;2.88;;;;;;;-145.18;100.00;46828.38;5089863;28;20594;-72
2022/07/19 10:02:39;;;;;;;10.95;3.58;;;;;;;-145.18;100.00;46810.81;5090472;28;20031;-72
2022/07/19 10:05:05;;;;;;;11.52;3.65;;;;;;;-145.18;100.00;46822.53;5089702;28;20040;-73
2022/07/19 10:07:34;;;;;;;15.00;3.10;;;;;;;-145.18;94.29;46816.66;5089288;28;20032;-72
2022/07/19 10:10:10;;;;;;;9.38;3.00;;;;;;;-145.18;94.54;46816.66;5089062;28;20103;-73
2022/07/19 10:12:37;;;;;;;6.95;2.88;;;;;;;-145.18;98.50;46816.66;5089633;28;20035;-72
2022/07/19 10:15:03;;;;;;;13.25;2.88;;;;;;;-145.18;94.87;46806.91;5089673;28;20032;-72
2022/07/19 10:17:33;;;;;;;11.18;3.20;;;;;;;-145.18;97.14;46816.66;5089906;28;20115;-72
2022/07/19 10:19:59;;;;;;;14.35;3.50;;;;;;;-145.18;97.63;46804.94;5089383;28;20035;-73
2022/07/19 10:22:26;;;;;;;9.57;2.97;;;;;;;-145.18;91.41;46801.03;5089291;28;20024;-73
2022/07/19 10:24:56;;;;;;;10.93;3.10;;;;;;;-145.18;92.00;46797.13;5084315;28;20059;-72
2022/07/19 10:27:25;;;;;;;10.70;3.10;;;;;;;-145.18;85.42;46806.91;5088108;28;20028;-73
2022/07/19 10:30:11;;;;;;;8.90;2.75;;;;;;;-145.18;91.29;46801.03;5082832;28;20131;-73
2022/07/19 10:32:39;;;;;;;14.43;3.00;;;;;;;-145.18;90.60;46799.09;5068042;28;20043;-73
2022/07/19 10:35:36;;;;;;;10.00;2.72;;;;;;;-145.18;88.43;46801.03;5072423;28;20032;-73
2022/07/19 10:38:01;;;;;;;23.70;4.15;;;;;;;-145.18;90.42;46791.28;5060314;28;20067;-72
2022/07/19 10:40:37;;;;;;;9.32;2.80;;;;;;;-145.18;87.76;46797.13;5087291;28;20484;-71
2022/07/19 10:43:07;;;;;;;12.82;3.10;;;;;;;-145.18;84.56;46793.22;5089416;28;20024;-73
2022/07/19 10:45:33;;;;;;;11.05;3.35;;;;;;;-145.18;95.54;46787.38;5059878;28;20093;-73
2022/07/19 10:48:01;;;;;;;13.65;3.13;;;;;;;-145.18;86.95;46779.56;5083819;28;20404;-75
2022/07/19 10:50:51;;;;;;;12.27;2.50;;;;;;;-145.18;83.60;46783.47;5088703;28;20020;-73
2022/07/19 10:53:38;;;;;;;13.18;2.78;;;;;;;-145.18;85.39;46785.41;5071668;28;20433;-73
2022/07/19 10:56:20;;;;;;;13.98;2.80;;;;;;;-145.18;84.22;46789.31;5076946;28;20032;-73
2022/07/19 10:58:57;;;;;;;11.07;2.92;;;;;;;-145.18;80.52;46773.69;5089035;28;20028;-73
2022/07/19 11:01:24;;;;;;;10.45;2.78;;;;;;;-145.18;75.59;46775.66;5089552;28;20424;-73
2022/07/19 11:03:51;;;;;;;9.95;2.72;;;;;;;-145.18;77.03;46771.75;5089302;28;20122;-73